createdAt,value
2022-12-15T02:23:04.129Z,10.62
2022-12-15T02:24:31.263Z,10.17
2022-12-15T02:25:53.584Z,11.06
2022-12-15T02:28:41.736Z,9.27
2022-12-15T02:30:11.789Z,8.97
2022-12-15T02:31:23.245Z,10.31
2022-12-15T02:32:29.035Z,9.64
2022-12-15T02:33:33.341Z,9.20
2022-12-15T02:34:57.567Z,9.38
2022-12-15T02:36:12.021Z,9.09
2022-12-15T02:37:20.321Z,8.93
2022-12-15T02:38:30.638Z,9.81
2022-12-15T02:39:32.578Z,9.84
2022-12-15T02:40:35.484Z,10.49
2022-12-15T02:41:40.503Z,9.61
2022-12-15T02:45:07.271Z,9.08
2022-12-15T02:46:19.435Z,8.74
2022-12-15T02:47:39.997Z,9.45
2022-12-15T02:49:01.506Z,9.20
2022-12-15T02:50:42.365Z,9.28
2022-12-15T02:52:02.879Z,8.75
2022-12-15T02:53:30.185Z,9.36
2022-12-15T02:54:52.948Z,8.71
2022-12-15T02:56:01.626Z,8.97
2022-12-15T02:57:10.470Z,8.09
2022-12-15T02:58:34.461Z,8.52
2022-12-15T02:59:55.226Z,8.37
2022-12-15T03:01:00.574Z,8.09
2022-12-15T03:02:06.010Z,8.59
2022-12-15T03:03:09.349Z,8.79
2022-12-15T03:04:12.737Z,9.49
2022-12-15T03:05:16.257Z,7.98
2022-12-15T03:06:19.580Z,8.24
2022-12-15T03:07:22.771Z,9.08
2022-12-15T03:08:24.681Z,9.05
2022-12-15T03:09:26.812Z,8.46
2022-12-15T03:10:29.004Z,9.16
2022-12-15T03:11:31.959Z,9.01
2022-12-15T03:12:33.986Z,8.66
2022-12-15T03:13:36.698Z,8.07
2022-12-15T03:14:38.584Z,9.23
2022-12-15T03:15:40.959Z,8.63
2022-12-15T03:16:43.008Z,9.02
2022-12-15T03:17:45.371Z,8.96
2022-12-15T03:18:47.541Z,9.15
2022-12-15T03:19:50.459Z,9.47
2022-12-15T03:20:52.758Z,8.76
2022-12-15T03:21:54.749Z,8.12
2022-12-15T03:22:56.632Z,9.75
2022-12-15T03:24:00.214Z,8.57
2022-12-15T03:25:05.132Z,9.08
2022-12-15T03:26:07.765Z,9.06
2022-12-15T03:27:10.109Z,8.91
2022-12-15T03:28:12.004Z,8.65
2022-12-15T03:29:14.032Z,8.33
2022-12-15T03:30:16.139Z,8.38
2022-12-15T03:31:18.701Z,9.37
2022-12-15T03:32:20.920Z,8.16
2022-12-15T03:33:22.962Z,9.56
2022-12-15T03:34:24.840Z,9.11
2022-12-15T03:35:26.958Z,9.51
2022-12-15T03:36:28.970Z,8.55
2022-12-15T03:37:30.929Z,8.90
2022-12-15T03:38:32.811Z,8.03
2022-12-15T03:39:34.710Z,8.99
2022-12-15T03:40:36.674Z,8.24
2022-12-15T03:41:39.342Z,8.82
2022-12-15T03:42:44.157Z,8.80
2022-12-15T03:43:46.104Z,9.02
2022-12-15T03:44:49.934Z,8.28
2022-12-15T03:45:52.013Z,8.97
2022-12-15T03:46:58.432Z,8.36
2022-12-15T03:47:58.088Z,9.45
2022-12-15T03:49:00.194Z,9.85
2022-12-15T03:50:03.021Z,8.84
2022-12-15T03:51:05.230Z,8.89
2022-12-15T03:52:07.226Z,8.34
2022-12-15T03:53:09.429Z,9.23
2022-12-15T03:54:13.128Z,8.23
2022-12-15T03:55:15.276Z,9.01
2022-12-15T03:56:17.726Z,8.94
2022-12-15T03:57:19.602Z,9.13
2022-12-15T03:58:21.488Z,8.71
2022-12-15T03:59:23.355Z,8.66
2022-12-15T04:00:26.456Z,8.89
2022-12-15T04:01:31.667Z,8.96
2022-12-15T04:02:33.937Z,8.59
2022-12-15T04:03:36.529Z,8.33
2022-12-15T04:04:38.794Z,9.43
2022-12-15T04:05:40.844Z,8.99
2022-12-15T04:06:43.199Z,9.28
2022-12-15T04:07:45.305Z,9.20
2022-12-15T04:08:47.588Z,8.68
2022-12-15T04:09:51.524Z,9.75
2022-12-15T04:10:53.755Z,8.74
2022-12-15T04:11:56.427Z,9.69
2022-12-15T04:15:19.432Z,9.77
2022-12-15T04:16:21.583Z,10.23
2022-12-15T04:17:23.842Z,9.15
2022-12-15T04:18:25.858Z,9.31
2022-12-15T04:19:27.746Z,10.14
2022-12-15T04:20:30.048Z,10.26
2022-12-15T04:21:32.075Z,10.55
2022-12-15T04:22:36.034Z,10.33
2022-12-15T04:23:37.963Z,10.55
2022-12-15T04:24:39.846Z,10.25
2022-12-15T04:25:41.726Z,9.75
2022-12-15T04:26:43.717Z,10.36
2022-12-15T04:27:46.318Z,9.52
2022-12-15T04:28:48.275Z,9.16
2022-12-15T04:29:50.142Z,8.62
2022-12-15T04:30:55.403Z,8.49
2022-12-15T04:31:57.446Z,10.56
2022-12-15T04:33:00.491Z,9.50
2022-12-15T04:34:05.954Z,9.82
2022-12-15T04:35:08.649Z,9.12
2022-12-15T04:36:13.145Z,9.73
2022-12-15T04:37:15.419Z,9.45
2022-12-15T04:38:18.173Z,9.01
2022-12-15T04:39:21.309Z,9.77
2022-12-15T04:40:23.340Z,9.78
2022-12-15T04:41:26.651Z,9.31
2022-12-15T04:42:30.553Z,9.67
2022-12-15T04:43:33.118Z,9.88
2022-12-15T04:44:36.416Z,9.64
2022-12-15T04:45:38.334Z,10.34
2022-12-15T04:46:40.512Z,10.65
2022-12-15T04:47:44.695Z,9.78
2022-12-15T04:48:46.613Z,9.96
2022-12-15T04:49:48.492Z,10.28
2022-12-15T04:50:50.588Z,12.53
2022-12-15T04:51:52.465Z,10.13
2022-12-15T04:52:54.346Z,10.31
2022-12-15T04:53:56.239Z,10.35
2022-12-15T04:54:58.135Z,10.51
2022-12-15T04:56:01.058Z,9.01
2022-12-15T04:57:03.361Z,9.92
2022-12-15T04:58:06.956Z,9.95
2022-12-15T04:59:08.902Z,9.44
2022-12-15T05:00:12.597Z,9.13
2022-12-15T05:01:14.552Z,9.73
2022-12-15T05:02:16.782Z,8.76
2022-12-15T05:03:18.843Z,9.13
2022-12-15T05:04:20.775Z,9.07
2022-12-15T05:05:22.812Z,9.17
2022-12-15T05:06:26.430Z,9.24
2022-12-15T05:07:29.655Z,9.10
2022-12-15T05:08:31.805Z,8.53
2022-12-15T05:09:33.674Z,9.47
2022-12-15T05:10:35.649Z,9.63
2022-12-15T05:11:38.524Z,9.21
2022-12-15T05:12:40.424Z,10.16
2022-12-15T05:13:42.326Z,8.75
2022-12-15T05:14:46.440Z,10.41
2022-12-15T05:15:50.359Z,9.17
2022-12-15T05:16:52.549Z,9.88
2022-12-15T05:17:55.881Z,9.51
2022-12-15T05:18:57.798Z,9.05
2022-12-15T05:19:59.684Z,9.19
2022-12-15T05:21:02.443Z,9.81
2022-12-15T05:22:05.253Z,10.46
2022-12-15T05:23:07.138Z,10.02
2022-12-15T05:24:09.025Z,10.34
2022-12-15T05:25:10.989Z,10.41
2022-12-15T05:26:13.767Z,10.85
2022-12-15T05:27:15.668Z,9.51
2022-12-15T05:28:17.536Z,10.11
2022-12-15T05:29:21.125Z,10.19
2022-12-15T05:30:23.141Z,10.42
2022-12-15T05:31:25.234Z,10.49
2022-12-15T05:32:27.182Z,9.70
2022-12-15T05:33:29.483Z,10.31
2022-12-15T05:34:33.639Z,10.54
2022-12-15T05:35:36.442Z,9.81
2022-12-15T05:36:38.849Z,10.36
2022-12-15T05:37:40.829Z,9.99
2022-12-15T05:38:42.712Z,10.91
2022-12-15T05:39:44.815Z,10.37
2022-12-15T05:40:47.309Z,10.22
2022-12-15T05:41:50.390Z,10.21
2022-12-15T05:42:52.389Z,10.69
2022-12-15T05:43:54.371Z,10.11
2022-12-15T05:44:56.240Z,10.84
2022-12-15T05:46:03.634Z,10.82
2022-12-15T05:47:06.041Z,10.54
2022-12-15T05:48:08.523Z,10.51
2022-12-15T05:49:13.451Z,10.27
2022-12-15T05:50:15.759Z,10.00
2022-12-15T05:51:17.837Z,10.86
2022-12-15T05:52:19.841Z,9.95
2022-12-15T05:53:22.856Z,10.41
2022-12-15T05:54:24.856Z,8.85
2022-12-15T05:55:26.955Z,10.04
2022-12-15T05:56:29.235Z,10.71
2022-12-15T05:57:31.124Z,10.89
2022-12-15T10:07:50.576Z,12.88
2022-12-15T10:08:59.560Z,11.84
2022-12-15T10:12:29.037Z,11.63
2022-12-15T10:13:55.623Z,11.30
2022-12-15T10:15:17.734Z,11.21
2022-12-15T10:16:32.155Z,11.44
2022-12-15T10:17:43.135Z,11.76
2022-12-15T10:20:20.848Z,12.21
2022-12-15T10:21:26.502Z,11.37
2022-12-15T10:22:31.714Z,11.22
2022-12-15T10:23:36.399Z,11.70
2022-12-15T10:25:08.678Z,12.12
2022-12-15T10:26:04.441Z,11.29
2022-12-15T10:27:27.066Z,12.53
2022-12-15T10:28:54.314Z,12.28
2022-12-15T10:30:05.909Z,11.94
2022-12-15T10:31:27.050Z,12.49
2022-12-15T10:32:42.397Z,11.77
2022-12-15T10:33:47.028Z,11.57
2022-12-15T10:34:46.749Z,12.44
2022-12-15T10:35:53.089Z,13.02
2022-12-15T10:36:56.302Z,12.72
2022-12-15T10:38:00.866Z,11.77
2022-12-15T10:39:03.007Z,11.86
2022-12-15T10:40:06.786Z,12.28
2022-12-15T10:41:20.868Z,11.32
2022-12-15T10:42:25.104Z,11.61
2022-12-15T10:43:35.112Z,12.46
2022-12-15T10:44:39.833Z,11.38
2022-12-15T10:45:41.754Z,11.52
2022-12-15T10:46:43.894Z,11.98
2022-12-15T10:47:50.368Z,11.73
2022-12-15T10:48:58.463Z,11.68
2022-12-15T10:50:24.244Z,11.70
2022-12-15T10:51:29.746Z,11.03
2022-12-15T10:52:36.474Z,11.60
2022-12-15T10:53:42.209Z,11.89
2022-12-15T10:54:48.440Z,12.68
2022-12-15T10:55:54.206Z,10.95
2022-12-15T10:56:58.856Z,11.08
2022-12-15T10:58:03.850Z,11.54
2022-12-15T10:59:30.765Z,11.62
2022-12-15T11:00:36.640Z,10.48
2022-12-15T11:01:38.962Z,11.96
2022-12-15T11:02:41.580Z,11.70
2022-12-15T11:03:44.236Z,10.81
2022-12-15T11:05:06.013Z,10.69
2022-12-15T11:06:12.047Z,11.31
2022-12-15T11:07:14.357Z,12.78
2022-12-15T11:08:16.978Z,11.25
2022-12-15T11:09:37.326Z,11.91
2022-12-15T11:10:52.057Z,10.97
2022-12-15T11:11:56.161Z,10.58
2022-12-15T11:13:15.950Z,11.85
2022-12-15T11:14:21.264Z,10.55
2022-12-15T11:15:30.025Z,10.36
2022-12-15T11:16:32.293Z,10.87
2022-12-15T11:20:04.077Z,10.71
2022-12-15T11:21:28.309Z,10.24
2022-12-15T11:22:50.577Z,10.66
2022-12-15T11:24:15.934Z,10.46
2022-12-15T11:25:36.919Z,10.89
2022-12-15T11:27:09.050Z,10.24
2022-12-15T11:28:14.885Z,10.19
2022-12-15T11:29:40.829Z,10.37
2022-12-15T11:30:46.714Z,9.96
2022-12-15T11:31:51.328Z,10.01
2022-12-15T11:32:56.544Z,10.62
2022-12-15T11:33:58.781Z,9.98
2022-12-15T11:35:00.930Z,10.58
2022-12-15T11:36:27.694Z,10.31
2022-12-15T11:37:41.386Z,10.69
2022-12-15T11:38:50.858Z,10.55
2022-12-15T11:40:15.045Z,10.38
2022-12-15T11:41:37.437Z,10.19
2022-12-15T11:42:51.635Z,9.96
2022-12-15T11:44:12.290Z,10.04
2022-12-15T11:45:44.966Z,10.31
2022-12-15T11:47:12.517Z,9.90
2022-12-15T11:48:17.948Z,10.01
2022-12-15T11:49:29.594Z,9.93
2022-12-15T11:50:38.116Z,9.68
2022-12-15T11:51:52.743Z,10.58
2022-12-15T11:53:04.410Z,10.42
2022-12-15T11:54:38.273Z,10.81
2022-12-15T11:56:05.796Z,10.29
2022-12-15T11:57:50.619Z,10.51
2022-12-15T11:59:03.457Z,9.88
2022-12-15T12:00:15.269Z,9.88
2022-12-15T12:01:58.757Z,10.66
2022-12-15T12:03:31.888Z,10.66
2022-12-15T12:04:47.777Z,10.83
2022-12-15T12:06:04.319Z,10.61
2022-12-15T12:07:44.629Z,11.23
2022-12-15T12:09:04.200Z,9.81
2022-12-15T12:10:25.456Z,10.28
2022-12-15T12:11:32.046Z,10.87
2022-12-15T12:12:47.108Z,11.64
2022-12-15T12:14:09.683Z,9.91
2022-12-15T12:15:26.553Z,10.54
2022-12-15T12:16:50.624Z,10.76
2022-12-15T12:17:55.559Z,10.42
2022-12-15T12:19:14.195Z,11.77
2022-12-15T12:20:24.649Z,11.54
2022-12-15T12:23:02.928Z,11.39
2022-12-15T12:24:39.463Z,11.62
2022-12-15T12:25:45.473Z,10.57
2022-12-15T12:27:05.249Z,10.58
2022-12-15T12:30:40.337Z,10.49
2022-12-15T12:31:50.681Z,9.71
2022-12-15T12:33:05.669Z,10.63
2022-12-15T12:34:14.129Z,10.76
2022-12-15T12:35:42.977Z,9.91
2022-12-15T12:36:49.091Z,10.11
2022-12-15T12:38:01.380Z,11.66
2022-12-15T12:39:01.957Z,10.16
2022-12-15T12:40:19.919Z,10.34
2022-12-15T12:41:45.691Z,11.00
2022-12-15T12:45:14.236Z,9.56
2022-12-15T12:46:20.603Z,9.60
2022-12-15T12:47:29.522Z,10.51
2022-12-15T12:48:35.238Z,9.99
2022-12-15T12:49:40.917Z,10.09
2022-12-15T12:50:46.616Z,11.34
2022-12-15T12:53:04.236Z,11.53
2022-12-15T12:54:39.005Z,10.56
2022-12-15T12:55:42.857Z,10.19
2022-12-15T12:56:50.533Z,11.28
2022-12-15T12:57:53.410Z,10.62
2022-12-15T12:58:55.741Z,11.11
2022-12-15T13:00:01.599Z,11.69
2022-12-15T13:01:07.571Z,11.58
2022-12-15T13:02:26.070Z,11.66
2022-12-15T13:03:29.035Z,11.85
2022-12-15T13:04:40.830Z,11.29
2022-12-15T13:06:49.272Z,10.17
2022-12-15T13:08:06.642Z,10.52
2022-12-15T13:09:23.877Z,10.32
2022-12-15T13:10:26.357Z,13.73
2022-12-15T13:11:50.043Z,12.65
2022-12-15T13:12:55.644Z,12.04
2022-12-15T13:16:21.396Z,11.98
2022-12-15T13:17:30.921Z,11.53
2022-12-15T13:18:55.721Z,10.88
2022-12-15T13:20:01.500Z,11.32
2022-12-15T13:21:07.512Z,17.11
2022-12-15T13:22:34.744Z,15.43
2022-12-15T13:23:42.265Z,12.01
2022-12-15T13:24:50.513Z,9.99
2022-12-15T13:25:59.220Z,11.81
2022-12-15T13:27:13.775Z,11.88
2022-12-15T13:28:37.868Z,12.26
2022-12-15T13:30:05.156Z,12.05
2022-12-15T13:31:21.004Z,11.55
2022-12-15T13:32:32.316Z,10.96
2022-12-15T13:33:38.078Z,10.98
2022-12-15T13:34:42.969Z,11.04
2022-12-15T13:35:45.930Z,10.04
2022-12-15T13:36:55.130Z,12.26
2022-12-15T13:37:57.473Z,12.09
2022-12-15T13:39:02.043Z,12.79
2022-12-15T13:40:24.624Z,12.38
2022-12-15T13:41:26.691Z,12.07
2022-12-15T13:42:35.008Z,13.07
2022-12-15T13:43:38.893Z,12.60
2022-12-15T13:44:48.865Z,14.04
2022-12-15T13:45:54.947Z,11.22
2022-12-15T13:47:00.916Z,12.02
2022-12-15T13:48:26.332Z,12.06
2022-12-15T13:49:38.459Z,13.06
2022-12-15T13:50:59.562Z,11.19
2022-12-15T13:52:04.995Z,11.24
2022-12-15T13:53:19.457Z,11.78
2022-12-15T18:26:33.793Z,22.19
2022-12-15T18:27:38.515Z,22.13
2022-12-15T18:28:46.062Z,22.98
2022-12-15T18:29:47.073Z,22.53
2022-12-15T18:30:53.601Z,24.93
2022-12-15T18:31:56.891Z,24.16
2022-12-15T18:32:58.999Z,23.79
2022-12-15T18:34:04.775Z,22.35
2022-12-15T18:35:14.350Z,22.49
2022-12-15T18:36:16.790Z,22.74
2022-12-15T18:37:21.406Z,22.78
2022-12-15T18:38:25.841Z,22.74
2022-12-15T18:39:28.894Z,22.70
2022-12-15T18:40:33.230Z,21.84
2022-12-15T18:41:35.130Z,23.04
2022-12-15T18:42:38.811Z,22.99
2022-12-15T18:43:43.031Z,22.91
2022-12-15T18:44:47.968Z,22.48
2022-12-15T18:45:51.167Z,22.93
2022-12-15T18:46:55.166Z,23.91
2022-12-15T18:47:57.484Z,23.25
2022-12-15T18:48:59.385Z,22.91
2022-12-15T18:50:01.250Z,23.25
2022-12-15T18:51:07.005Z,22.37
2022-12-15T18:52:23.938Z,23.15
2022-12-15T18:53:35.961Z,24.18
2022-12-15T18:54:38.027Z,24.66
2022-12-15T18:55:40.673Z,24.25
2022-12-15T18:56:43.652Z,22.83
2022-12-15T18:57:47.288Z,23.43
2022-12-15T18:58:52.184Z,23.45
2022-12-15T19:00:00.833Z,21.84
2022-12-15T19:01:06.209Z,21.47
2022-12-15T19:02:08.407Z,21.58
2022-12-15T19:03:10.614Z,21.64
2022-12-15T19:04:16.080Z,21.31
2022-12-15T19:05:20.981Z,22.88
2022-12-15T19:07:41.204Z,19.87
2022-12-15T19:08:43.354Z,20.28
2022-12-15T19:09:45.689Z,20.89
2022-12-15T19:10:53.986Z,19.57
2022-12-15T19:11:57.898Z,21.31
2022-12-15T19:13:02.270Z,20.75
2022-12-15T19:14:07.950Z,21.57
2022-12-15T19:15:21.172Z,22.08
2022-12-15T19:16:23.492Z,23.79
2022-12-15T19:17:25.592Z,24.14
2022-12-15T19:18:28.953Z,24.55
2022-12-15T19:19:30.984Z,24.74
2022-12-15T19:20:34.972Z,26.39
2022-12-15T19:21:37.546Z,27.11
2022-12-15T19:22:41.615Z,26.06
2022-12-15T19:23:46.000Z,25.95
2022-12-15T19:24:49.847Z,27.13
2022-12-15T19:25:52.874Z,26.45
2022-12-15T19:26:54.955Z,26.84
2022-12-15T19:27:59.604Z,26.08
2022-12-15T19:29:05.606Z,25.49
2022-12-15T19:30:16.221Z,24.60
2022-12-15T19:31:18.413Z,24.94
2022-12-15T19:32:21.171Z,24.82
2022-12-15T19:33:23.487Z,23.82
2022-12-15T19:34:28.263Z,25.89
2022-12-15T19:35:30.411Z,25.38
2022-12-15T19:36:36.709Z,25.98
2022-12-15T19:37:42.161Z,26.59
2022-12-15T19:38:45.584Z,25.44
2022-12-15T19:39:49.052Z,25.72
2022-12-15T19:40:51.895Z,24.73
2022-12-15T19:41:54.097Z,26.31
2022-12-15T19:42:58.503Z,27.93
2022-12-15T19:44:00.592Z,27.38
2022-12-15T19:45:15.393Z,26.76
2022-12-15T19:46:20.156Z,29.93
2022-12-15T19:47:25.642Z,29.59
2022-12-15T19:48:27.680Z,29.36
2022-12-15T19:51:44.941Z,26.90
2022-12-15T19:52:50.721Z,28.21
2022-12-15T19:53:52.737Z,26.62
2022-12-15T19:54:55.999Z,27.65
2022-12-15T19:55:59.619Z,27.22
2022-12-15T19:57:02.063Z,28.32
2022-12-15T19:58:28.186Z,29.15
2022-12-15T19:59:29.550Z,28.94
2022-12-15T20:00:31.614Z,28.03
2022-12-15T20:01:36.336Z,29.09
2022-12-15T20:02:38.544Z,29.17
2022-12-15T20:03:42.550Z,28.73
2022-12-15T20:04:46.397Z,28.44
2022-12-15T20:05:51.282Z,29.74
2022-12-15T20:06:53.763Z,28.86
2022-12-15T20:07:58.066Z,27.68
2022-12-15T20:09:00.130Z,27.85
2022-12-15T20:10:02.529Z,28.25
2022-12-15T20:11:06.541Z,28.12
2022-12-15T20:12:16.952Z,28.34
2022-12-15T20:13:20.181Z,28.34
2022-12-15T20:14:22.249Z,27.50
2022-12-15T20:15:25.856Z,26.77
2022-12-15T20:16:28.139Z,29.06
2022-12-15T20:17:30.199Z,27.52
2022-12-15T20:18:32.612Z,28.01
2022-12-15T20:19:37.359Z,25.23
2022-12-15T20:20:42.926Z,25.22
2022-12-15T20:21:45.290Z,24.62
2022-12-15T20:22:50.939Z,22.75
2022-12-15T20:23:58.559Z,24.25
2022-12-15T20:25:01.300Z,23.89
2022-12-15T20:26:07.099Z,24.44
2022-12-15T20:29:31.828Z,24.42
2022-12-15T20:30:35.808Z,22.03
2022-12-15T20:31:39.005Z,23.15
2022-12-15T20:32:44.032Z,22.66
2022-12-15T20:33:47.917Z,22.74
2022-12-15T20:34:49.983Z,22.60
2022-12-15T20:35:53.828Z,22.74
2022-12-15T20:36:57.261Z,23.28
2022-12-15T20:38:02.176Z,21.94
2022-12-15T20:39:09.248Z,22.13
2022-12-15T20:40:21.605Z,22.47
2022-12-15T20:41:26.551Z,21.92
2022-12-15T20:42:30.740Z,23.36
2022-12-15T20:43:34.806Z,24.84
2022-12-15T20:44:41.822Z,24.59
2022-12-15T20:45:45.600Z,26.23
2022-12-15T20:46:48.939Z,25.48
2022-12-15T20:47:56.833Z,26.64
2022-12-15T20:49:00.228Z,26.09
2022-12-15T20:50:04.898Z,26.83
2022-12-15T20:51:10.053Z,27.89
2022-12-15T20:52:16.026Z,25.67
2022-12-15T20:53:21.447Z,24.55
2022-12-15T20:54:23.401Z,24.93
2022-12-15T20:55:25.605Z,25.18
2022-12-15T20:56:28.419Z,23.53
2022-12-15T20:57:33.843Z,24.57
2022-12-15T20:58:39.788Z,22.66
2022-12-15T20:59:41.708Z,24.96
2022-12-15T21:00:45.831Z,23.44
2022-12-15T21:01:49.144Z,24.68
2022-12-15T21:02:55.483Z,24.03
2022-12-15T21:03:59.852Z,23.35
2022-12-15T21:05:02.133Z,25.27
2022-12-15T21:06:05.369Z,23.35
2022-12-15T21:07:11.130Z,24.09
2022-12-15T21:08:21.918Z,24.73
2022-12-15T21:09:24.826Z,25.01
2022-12-15T21:10:27.126Z,25.06
2022-12-15T21:11:32.016Z,23.81
2022-12-15T21:12:34.237Z,25.48
2022-12-15T21:13:38.271Z,23.71
2022-12-15T21:14:40.945Z,24.81
2022-12-15T21:15:42.865Z,24.68
2022-12-15T21:16:45.631Z,23.34
2022-12-15T21:18:03.845Z,25.40
2022-12-15T21:20:01.998Z,25.88
2022-12-15T21:21:08.000Z,24.44
2022-12-15T21:22:21.679Z,24.84
2022-12-15T21:23:27.014Z,27.00
2022-12-15T21:24:32.518Z,25.35
2022-12-15T21:25:39.812Z,24.83
2022-12-15T21:26:42.658Z,26.11
2022-12-15T21:27:44.933Z,26.84
2022-12-15T21:28:50.469Z,26.07
2022-12-15T21:29:57.841Z,25.64
2022-12-15T21:31:00.804Z,26.52
2022-12-15T21:32:03.078Z,26.76
2022-12-15T21:33:05.578Z,26.57
2022-12-15T21:34:08.859Z,26.13
2022-12-15T21:35:13.343Z,25.22
2022-12-15T21:36:22.896Z,25.91
2022-12-15T21:37:30.841Z,25.23
2022-12-15T21:38:37.164Z,26.60
2022-12-15T21:39:39.654Z,24.98
2022-12-15T21:40:42.336Z,25.09
2022-12-15T21:41:44.548Z,24.53
2022-12-15T21:42:49.025Z,25.78
2022-12-15T21:43:51.072Z,25.78
2022-12-15T21:44:53.983Z,24.80
2022-12-15T21:45:58.071Z,26.65
2022-12-15T21:47:00.414Z,25.81
2022-12-15T21:48:02.703Z,24.11
2022-12-15T21:49:04.864Z,25.55
2022-12-15T21:50:08.029Z,27.67
2022-12-15T21:53:29.435Z,25.91
2022-12-15T21:54:34.118Z,24.59
2022-12-15T21:55:36.207Z,23.52
2022-12-15T21:56:39.088Z,24.98
2022-12-15T21:57:41.140Z,24.17
2022-12-15T21:58:46.060Z,22.94
2022-12-15T21:59:47.966Z,24.59
2022-12-15T22:00:50.472Z,23.48
2022-12-15T22:01:52.581Z,23.36
2022-12-15T22:02:54.895Z,23.59
2022-12-15T22:04:00.046Z,22.92
2022-12-15T22:05:03.190Z,23.32
2022-12-15T22:06:06.365Z,22.75
2022-12-15T22:07:12.027Z,23.89
2022-12-15T22:08:19.956Z,23.13
2022-12-15T22:09:22.984Z,22.11
2022-12-15T22:10:25.707Z,22.84
2022-12-15T22:11:30.542Z,22.26
2022-12-15T22:12:33.368Z,24.38
2022-12-15T22:13:35.355Z,21.92
2022-12-15T22:14:37.494Z,23.54
2022-12-15T22:15:39.649Z,25.35
2022-12-15T22:16:42.098Z,24.70
2022-12-15T22:17:44.843Z,26.51
2022-12-15T22:18:55.257Z,25.53
2022-12-15T22:19:58.073Z,25.93
2022-12-15T22:21:00.092Z,25.88
2022-12-15T22:22:01.976Z,25.83
2022-12-15T22:23:04.387Z,24.89
2022-12-15T22:24:10.236Z,25.75
2022-12-15T22:25:17.987Z,26.21
2022-12-15T22:26:30.938Z,25.03
2022-12-15T22:27:33.678Z,24.52
2022-12-15T22:28:36.778Z,23.50
2022-12-15T22:29:39.191Z,26.03
2022-12-15T22:30:41.362Z,26.34
2022-12-15T22:31:44.121Z,24.46
2022-12-15T22:32:46.360Z,24.83
2022-12-15T22:33:49.052Z,24.51
2022-12-15T22:34:50.939Z,24.58
2022-12-15T22:35:55.896Z,26.87
2022-12-15T22:36:58.101Z,25.44
2022-12-15T22:38:00.031Z,25.07
2022-12-15T22:39:07.510Z,26.37
2022-12-15T22:40:07.463Z,25.93
2022-12-15T22:41:21.489Z,25.18
2022-12-15T22:42:23.531Z,24.85
2022-12-15T22:43:38.214Z,24.08
2022-12-15T22:44:40.127Z,24.34
2022-12-15T22:45:42.921Z,24.97
2022-12-15T22:46:47.624Z,23.56
2022-12-15T22:47:52.786Z,25.89
2022-12-15T22:48:55.199Z,24.62
2022-12-15T22:49:57.085Z,24.79
2022-12-15T22:51:02.696Z,23.49
2022-12-15T22:52:20.066Z,23.59
2022-12-15T22:53:24.209Z,25.02
2022-12-15T22:54:29.433Z,26.34
2022-12-15T22:55:32.858Z,26.34
2022-12-15T22:56:38.872Z,26.46
2022-12-15T22:58:57.453Z,25.32
2022-12-15T23:00:03.235Z,26.92
2022-12-15T23:01:05.930Z,27.42
2022-12-15T23:02:10.225Z,28.77
2022-12-15T23:03:13.202Z,29.51
2022-12-15T23:04:15.574Z,31.64
2022-12-15T23:05:19.701Z,30.49
2022-12-15T23:06:22.659Z,30.75
2022-12-15T23:07:25.102Z,31.73
2022-12-15T23:08:28.909Z,31.65
2022-12-15T23:09:32.510Z,30.21
2022-12-15T23:10:34.683Z,29.29
2022-12-15T23:11:36.550Z,29.86
2022-12-15T23:12:38.729Z,30.17
2022-12-15T23:13:40.915Z,29.47
2022-12-15T23:14:42.803Z,29.10
2022-12-15T23:15:44.906Z,28.83
2022-12-15T23:16:48.087Z,27.82
2022-12-15T23:17:50.077Z,27.08
2022-12-15T23:18:55.748Z,30.35
2022-12-15T23:19:57.684Z,28.56
2022-12-15T23:20:59.990Z,28.57
2022-12-15T23:22:01.895Z,27.76
2022-12-15T23:23:03.943Z,28.39
2022-12-15T23:24:07.832Z,27.45
2022-12-15T23:25:10.173Z,27.62
2022-12-15T23:26:13.732Z,25.72
2022-12-15T23:27:15.623Z,27.63
2022-12-15T23:28:17.803Z,25.80
2022-12-15T23:29:19.777Z,27.30
2022-12-15T23:30:21.771Z,28.53
2022-12-15T23:31:24.021Z,34.51
2022-12-15T23:32:25.935Z,30.40
2022-12-15T23:33:31.637Z,30.99
2022-12-15T23:34:34.068Z,28.89
2022-12-15T23:35:39.509Z,31.18
2022-12-15T23:36:41.553Z,26.49
2022-12-15T23:37:43.434Z,25.85
2022-12-15T23:38:45.328Z,27.07
2022-12-15T23:39:47.197Z,26.37
2022-12-15T23:40:53.010Z,26.42
2022-12-15T23:41:55.133Z,27.27
2022-12-15T23:42:57.006Z,30.80
2022-12-15T23:43:59.641Z,27.09
2022-12-15T23:45:01.767Z,26.98
2022-12-15T23:46:05.756Z,27.30
2022-12-15T23:47:07.898Z,30.75
2022-12-15T23:48:12.103Z,28.85
2022-12-15T23:49:13.999Z,52.85
2022-12-15T23:50:16.971Z,43.27
2022-12-15T23:51:20.291Z,47.48
2022-12-15T23:52:22.183Z,41.71
2022-12-15T23:53:24.070Z,43.42
2022-12-15T23:54:25.989Z,59.41
2022-12-15T23:55:28.737Z,54.07
2022-12-15T23:56:30.712Z,42.94
2022-12-15T23:57:33.176Z,49.93
2022-12-15T23:58:37.390Z,45.97
2022-12-15T23:59:39.545Z,74.89
